sensor_id;sensor_type;location;lat;lon;timestamp;P1;durP1;ratioP1;P2;durP2;ratioP2
55659;SDS011;41534;53.550;9.964;2024-02-23T00:01:27;34.20;;;29.70;;
55659;SDS011;41534;53.550;9.964;2024-02-23T00:04:27;31.47;;;28.03;;
55659;SDS011;41534;53.550;9.964;2024-02-23T00:07:27;31.83;;;28.00;;
55659;SDS011;41534;53.550;9.964;2024-02-23T00:10:27;33.63;;;29.35;;
55659;SDS011;41534;53.550;9.964;2024-02-23T00:13:28;35.77;;;29.07;;
55659;SDS011;41534;53.550;9.964;2024-02-23T00:16:28;34.55;;;30.20;;
55659;SDS011;41534;53.550;9.964;2024-02-23T00:19:29;34.40;;;30.08;;
55659;SDS011;41534;53.550;9.964;2024-02-23T00:22:32;35.47;;;30.58;;
55659;SDS011;41534;53.550;9.964;2024-02-23T00:25:32;33.53;;;29.17;;
55659;SDS011;41534;53.550;9.964;2024-02-23T00:28:33;35.03;;;30.30;;
55659;SDS011;41534;53.550;9.964;2024-02-23T00:31:33;34.83;;;29.47;;
55659;SDS011;41534;53.550;9.964;2024-02-23T00:34:33;33.20;;;29.45;;
55659;SDS011;41534;53.550;9.964;2024-02-23T00:37:34;34.65;;;28.83;;
55659;SDS011;41534;53.550;9.964;2024-02-23T00:40:34;33.15;;;28.48;;
55659;SDS011;41534;53.550;9.964;2024-02-23T00:43:40;33.88;;;28.83;;
55659;SDS011;41534;53.550;9.964;2024-02-23T00:46:41;35.55;;;29.23;;
55659;SDS011;41534;53.550;9.964;2024-02-23T00:49:42;35.10;;;28.88;;
55659;SDS011;41534;53.550;9.964;2024-02-23T00:52:42;33.30;;;28.33;;
55659;SDS011;41534;53.550;9.964;2024-02-23T00:55:42;35.47;;;28.77;;
55659;SDS011;41534;53.550;9.964;2024-02-23T00:58:43;33.90;;;27.40;;
55659;SDS011;41534;53.550;9.964;2024-02-23T01:01:43;31.83;;;26.58;;
55659;SDS011;41534;53.550;9.964;2024-02-23T01:04:43;32.42;;;28.00;;
55659;SDS011;41534;53.550;9.964;2024-02-23T01:07:43;35.28;;;27.65;;
55659;SDS011;41534;53.550;9.964;2024-02-23T01:10:44;34.80;;;27.45;;
55659;SDS011;41534;53.550;9.964;2024-02-23T01:13:44;29.58;;;25.67;;
55659;SDS011;41534;53.550;9.964;2024-02-23T01:16:45;31.45;;;26.25;;
55659;SDS011;41534;53.550;9.964;2024-02-23T01:19:45;30.70;;;26.13;;
55659;SDS011;41534;53.550;9.964;2024-02-23T01:22:46;27.70;;;24.45;;
55659;SDS011;41534;53.550;9.964;2024-02-23T01:25:46;29.00;;;23.90;;
55659;SDS011;41534;53.550;9.964;2024-02-23T01:28:46;28.52;;;23.60;;
55659;SDS011;41534;53.550;9.964;2024-02-23T01:31:46;32.90;;;24.05;;
55659;SDS011;41534;53.550;9.964;2024-02-23T01:34:47;29.10;;;24.92;;
55659;SDS011;41534;53.550;9.964;2024-02-23T01:37:47;30.48;;;24.77;;
55659;SDS011;41534;53.550;9.964;2024-02-23T01:40:47;29.15;;;24.85;;
55659;SDS011;41534;53.550;9.964;2024-02-23T01:43:48;26.52;;;22.75;;
55659;SDS011;41534;53.550;9.964;2024-02-23T01:46:48;26.88;;;23.02;;
55659;SDS011;41534;53.550;9.964;2024-02-23T01:49:49;27.60;;;21.42;;
55659;SDS011;41534;53.550;9.964;2024-02-23T01:52:51;25.30;;;22.08;;
55659;SDS011;41534;53.550;9.964;2024-02-23T01:55:52;28.48;;;22.50;;
55659;SDS011;41534;53.550;9.964;2024-02-23T01:58:53;26.17;;;21.38;;
55659;SDS011;41534;53.550;9.964;2024-02-23T02:01:55;25.75;;;20.27;;
55659;SDS011;41534;53.550;9.964;2024-02-23T02:04:55;25.25;;;20.23;;
55659;SDS011;41534;53.550;9.964;2024-02-23T02:07:56;23.45;;;19.38;;
55659;SDS011;41534;53.550;9.964;2024-02-23T02:10:56;21.80;;;19.30;;
55659;SDS011;41534;53.550;9.964;2024-02-23T02:13:56;23.63;;;18.67;;
55659;SDS011;41534;53.550;9.964;2024-02-23T02:16:57;21.83;;;19.35;;
55659;SDS011;41534;53.550;9.964;2024-02-23T02:19:58;23.85;;;20.48;;
55659;SDS011;41534;53.550;9.964;2024-02-23T02:22:59;24.98;;;20.83;;
55659;SDS011;41534;53.550;9.964;2024-02-23T02:25:59;24.55;;;21.55;;
55659;SDS011;41534;53.550;9.964;2024-02-23T02:28:59;24.98;;;21.98;;
55659;SDS011;41534;53.550;9.964;2024-02-23T02:31:59;24.20;;;20.52;;
55659;SDS011;41534;53.550;9.964;2024-02-23T02:35:00;23.55;;;20.15;;
55659;SDS011;41534;53.550;9.964;2024-02-23T02:38:00;23.77;;;20.75;;
55659;SDS011;41534;53.550;9.964;2024-02-23T02:41:00;22.20;;;19.80;;
55659;SDS011;41534;53.550;9.964;2024-02-23T02:44:01;23.70;;;20.35;;
55659;SDS011;41534;53.550;9.964;2024-02-23T02:47:01;20.30;;;18.23;;
55659;SDS011;41534;53.550;9.964;2024-02-23T02:50:02;21.60;;;19.05;;
55659;SDS011;41534;53.550;9.964;2024-02-23T02:53:02;21.15;;;18.83;;
55659;SDS011;41534;53.550;9.964;2024-02-23T02:56:05;21.25;;;18.38;;
55659;SDS011;41534;53.550;9.964;2024-02-23T02:59:06;19.33;;;17.27;;
55659;SDS011;41534;53.550;9.964;2024-02-23T03:02:06;19.43;;;17.43;;
55659;SDS011;41534;53.550;9.964;2024-02-23T03:05:06;18.73;;;16.75;;
55659;SDS011;41534;53.550;9.964;2024-02-23T03:08:07;17.88;;;16.05;;
55659;SDS011;41534;53.550;9.964;2024-02-23T03:11:07;18.70;;;15.85;;
55659;SDS011;41534;53.550;9.964;2024-02-23T03:14:07;17.70;;;15.65;;
55659;SDS011;41534;53.550;9.964;2024-02-23T03:17:08;16.27;;;14.68;;
55659;SDS011;41534;53.550;9.964;2024-02-23T03:20:09;16.83;;;15.02;;
55659;SDS011;41534;53.550;9.964;2024-02-23T03:23:11;17.77;;;15.90;;
55659;SDS011;41534;53.550;9.964;2024-02-23T03:26:11;16.05;;;14.45;;
55659;SDS011;41534;53.550;9.964;2024-02-23T03:29:11;18.13;;;14.70;;
55659;SDS011;41534;53.550;9.964;2024-02-23T03:32:12;16.48;;;14.77;;
55659;SDS011;41534;53.550;9.964;2024-02-23T03:35:12;10.23;;;8.77;;
55659;SDS011;41534;53.550;9.964;2024-02-23T03:38:12;8.73;;;7.93;;
55659;SDS011;41534;53.550;9.964;2024-02-23T03:41:13;8.93;;;8.02;;
55659;SDS011;41534;53.550;9.964;2024-02-23T03:44:13;8.23;;;7.10;;
55659;SDS011;41534;53.550;9.964;2024-02-23T03:47:13;8.48;;;7.68;;
55659;SDS011;41534;53.550;9.964;2024-02-23T03:50:14;8.45;;;7.57;;
55659;SDS011;41534;53.550;9.964;2024-02-23T03:53:14;7.07;;;6.47;;
55659;SDS011;41534;53.550;9.964;2024-02-23T03:56:14;7.70;;;7.00;;
55659;SDS011;41534;53.550;9.964;2024-02-23T03:59:15;7.70;;;6.68;;
55659;SDS011;41534;53.550;9.964;2024-02-23T04:02:15;6.65;;;5.82;;
55659;SDS011;41534;53.550;9.964;2024-02-23T04:05:15;6.97;;;5.73;;
55659;SDS011;41534;53.550;9.964;2024-02-23T04:08:15;5.78;;;5.22;;
55659;SDS011;41534;53.550;9.964;2024-02-23T04:11:16;5.68;;;5.18;;
55659;SDS011;41534;53.550;9.964;2024-02-23T04:14:16;5.50;;;5.00;;
55659;SDS011;41534;53.550;9.964;2024-02-23T04:17:16;5.10;;;4.70;;
55659;SDS011;41534;53.550;9.964;2024-02-23T04:20:17;5.13;;;4.63;;
55659;SDS011;41534;53.550;9.964;2024-02-23T04:23:17;6.95;;;4.78;;
55659;SDS011;41534;53.550;9.964;2024-02-23T04:26:17;5.95;;;4.60;;
55659;SDS011;41534;53.550;9.964;2024-02-23T04:29:17;4.18;;;3.88;;
55659;SDS011;41534;53.550;9.964;2024-02-23T04:32:18;3.90;;;3.60;;
55659;SDS011;41534;53.550;9.964;2024-02-23T04:35:18;4.10;;;3.72;;
55659;SDS011;41534;53.550;9.964;2024-02-23T04:38:18;3.60;;;3.30;;
55659;SDS011;41534;53.550;9.964;2024-02-23T04:41:19;3.67;;;3.38;;
55659;SDS011;41534;53.550;9.964;2024-02-23T04:44:20;3.35;;;3.08;;
55659;SDS011;41534;53.550;9.964;2024-02-23T04:47:20;3.47;;;3.00;;
55659;SDS011;41534;53.550;9.964;2024-02-23T04:50:21;3.50;;;3.08;;
55659;SDS011;41534;53.550;9.964;2024-02-23T04:53:21;3.90;;;3.08;;
55659;SDS011;41534;53.550;9.964;2024-02-23T04:56:21;2.90;;;2.63;;
55659;SDS011;41534;53.550;9.964;2024-02-23T04:59:21;3.08;;;2.55;;
55659;SDS011;41534;53.550;9.964;2024-02-23T05:02:22;2.70;;;2.50;;
55659;SDS011;41534;53.550;9.964;2024-02-23T05:05:22;2.70;;;2.50;;
55659;SDS011;41534;53.550;9.964;2024-02-23T05:08:22;3.17;;;2.50;;
55659;SDS011;41534;53.550;9.964;2024-02-23T05:11:22;4.20;;;2.42;;
55659;SDS011;41534;53.550;9.964;2024-02-23T05:14:23;2.47;;;2.22;;
55659;SDS011;41534;53.550;9.964;2024-02-23T05:17:23;2.47;;;2.28;;
55659;SDS011;41534;53.550;9.964;2024-02-23T05:20:23;2.55;;;2.03;;
55659;SDS011;41534;53.550;9.964;2024-02-23T05:23:24;2.47;;;2.10;;
55659;SDS011;41534;53.550;9.964;2024-02-23T05:26:24;2.25;;;2.05;;
55659;SDS011;41534;53.550;9.964;2024-02-23T05:29:24;3.40;;;2.20;;
55659;SDS011;41534;53.550;9.964;2024-02-23T05:32:24;1.90;;;1.55;;
55659;SDS011;41534;53.550;9.964;2024-02-23T05:35:25;3.05;;;1.75;;
55659;SDS011;41534;53.550;9.964;2024-02-23T05:38:25;2.60;;;1.70;;
55659;SDS011;41534;53.550;9.964;2024-02-23T05:41:25;2.53;;;1.70;;
55659;SDS011;41534;53.550;9.964;2024-02-23T05:44:26;2.40;;;1.70;;
55659;SDS011;41534;53.550;9.964;2024-02-23T05:47:26;2.95;;;1.60;;
55659;SDS011;41534;53.550;9.964;2024-02-23T05:50:26;1.70;;;1.45;;
55659;SDS011;41534;53.550;9.964;2024-02-23T05:53:26;2.20;;;1.40;;
55659;SDS011;41534;53.550;9.964;2024-02-23T05:56:27;1.95;;;1.40;;
55659;SDS011;41534;53.550;9.964;2024-02-23T05:59:27;6.85;;;1.60;;
55659;SDS011;41534;53.550;9.964;2024-02-23T06:02:27;1.88;;;1.63;;
55659;SDS011;41534;53.550;9.964;2024-02-23T06:05:27;1.63;;;1.25;;
55659;SDS011;41534;53.550;9.964;2024-02-23T06:08:28;1.40;;;1.25;;
55659;SDS011;41534;53.550;9.964;2024-02-23T06:11:28;1.77;;;1.27;;
55659;SDS011;41534;53.550;9.964;2024-02-23T06:14:28;1.58;;;1.17;;
55659;SDS011;41534;53.550;9.964;2024-02-23T06:17:29;1.35;;;1.00;;
55659;SDS011;41534;53.550;9.964;2024-02-23T06:20:29;1.30;;;1.00;;
55659;SDS011;41534;53.550;9.964;2024-02-23T06:23:29;1.15;;;0.82;;
55659;SDS011;41534;53.550;9.964;2024-02-23T06:26:29;1.08;;;0.95;;
55659;SDS011;41534;53.550;9.964;2024-02-23T06:29:31;1.88;;;1.10;;
55659;SDS011;41534;53.550;9.964;2024-02-23T06:32:31;1.75;;;0.90;;
55659;SDS011;41534;53.550;9.964;2024-02-23T06:35:31;1.40;;;0.80;;
55659;SDS011;41534;53.550;9.964;2024-02-23T06:38:32;1.00;;;0.80;;
55659;SDS011;41534;53.550;9.964;2024-02-23T06:41:32;3.17;;;0.90;;
55659;SDS011;41534;53.550;9.964;2024-02-23T06:44:32;1.70;;;0.90;;
55659;SDS011;41534;53.550;9.964;2024-02-23T06:47:33;2.53;;;0.93;;
55659;SDS011;41534;53.550;9.964;2024-02-23T06:50:33;1.63;;;1.10;;
55659;SDS011;41534;53.550;9.964;2024-02-23T06:53:35;1.90;;;0.88;;
55659;SDS011;41534;53.550;9.964;2024-02-23T06:56:35;1.05;;;0.70;;
55659;SDS011;41534;53.550;9.964;2024-02-23T06:59:35;1.67;;;0.90;;
55659;SDS011;41534;53.550;9.964;2024-02-23T07:02:36;2.03;;;0.85;;
55659;SDS011;41534;53.550;9.964;2024-02-23T07:05:36;1.45;;;0.90;;
55659;SDS011;41534;53.550;9.964;2024-02-23T07:08:36;2.40;;;0.90;;
55659;SDS011;41534;53.550;9.964;2024-02-23T07:11:37;2.40;;;0.75;;
55659;SDS011;41534;53.550;9.964;2024-02-23T07:14:37;1.38;;;0.93;;
55659;SDS011;41534;53.550;9.964;2024-02-23T07:17:38;2.25;;;0.70;;
55659;SDS011;41534;53.550;9.964;2024-02-23T07:20:38;2.38;;;1.15;;
55659;SDS011;41534;53.550;9.964;2024-02-23T07:23:38;0.98;;;0.60;;
55659;SDS011;41534;53.550;9.964;2024-02-23T07:26:38;2.15;;;0.73;;
55659;SDS011;41534;53.550;9.964;2024-02-23T07:29:39;2.55;;;0.90;;
55659;SDS011;41534;53.550;9.964;2024-02-23T07:32:39;1.33;;;0.80;;
55659;SDS011;41534;53.550;9.964;2024-02-23T07:35:39;1.13;;;0.80;;
55659;SDS011;41534;53.550;9.964;2024-02-23T07:38:40;1.58;;;0.90;;
55659;SDS011;41534;53.550;9.964;2024-02-23T07:41:40;2.17;;;0.90;;
55659;SDS011;41534;53.550;9.964;2024-02-23T07:44:40;1.02;;;0.60;;
55659;SDS011;41534;53.550;9.964;2024-02-23T07:47:40;1.17;;;0.68;;
55659;SDS011;41534;53.550;9.964;2024-02-23T07:50:41;2.08;;;0.90;;
55659;SDS011;41534;53.550;9.964;2024-02-23T07:53:41;1.33;;;0.80;;
55659;SDS011;41534;53.550;9.964;2024-02-23T07:56:41;1.65;;;0.98;;
55659;SDS011;41534;53.550;9.964;2024-02-23T07:59:42;1.75;;;1.08;;
55659;SDS011;41534;53.550;9.964;2024-02-23T08:02:42;2.15;;;0.90;;
55659;SDS011;41534;53.550;9.964;2024-02-23T08:05:42;1.35;;;1.15;;
55659;SDS011;41534;53.550;9.964;2024-02-23T08:08:42;2.22;;;1.30;;
55659;SDS011;41534;53.550;9.964;2024-02-23T08:11:43;1.40;;;1.20;;
55659;SDS011;41534;53.550;9.964;2024-02-23T08:14:43;1.63;;;1.10;;
55659;SDS011;41534;53.550;9.964;2024-02-23T08:17:43;1.88;;;1.10;;
55659;SDS011;41534;53.550;9.964;2024-02-23T08:20:44;1.25;;;0.88;;
55659;SDS011;41534;53.550;9.964;2024-02-23T08:23:44;1.73;;;1.10;;
55659;SDS011;41534;53.550;9.964;2024-02-23T08:26:44;3.65;;;1.20;;
55659;SDS011;41534;53.550;9.964;2024-02-23T08:29:45;2.08;;;1.10;;
55659;SDS011;41534;53.550;9.964;2024-02-23T08:32:45;2.17;;;1.10;;
55659;SDS011;41534;53.550;9.964;2024-02-23T08:35:46;2.95;;;1.27;;
55659;SDS011;41534;53.550;9.964;2024-02-23T08:38:46;3.13;;;1.40;;
55659;SDS011;41534;53.550;9.964;2024-02-23T08:41:46;3.58;;;1.48;;
55659;SDS011;41534;53.550;9.964;2024-02-23T08:44:46;2.03;;;1.20;;
55659;SDS011;41534;53.550;9.964;2024-02-23T08:47:47;2.22;;;1.60;;
55659;SDS011;41534;53.550;9.964;2024-02-23T08:50:47;2.50;;;1.50;;
55659;SDS011;41534;53.550;9.964;2024-02-23T08:53:48;2.88;;;1.02;;
55659;SDS011;41534;53.550;9.964;2024-02-23T08:56:48;3.65;;;1.40;;
55659;SDS011;41534;53.550;9.964;2024-02-23T08:59:49;4.38;;;1.30;;
55659;SDS011;41534;53.550;9.964;2024-02-23T09:02:49;3.45;;;1.00;;
55659;SDS011;41534;53.550;9.964;2024-02-23T09:05:50;9.15;;;1.00;;
55659;SDS011;41534;53.550;9.964;2024-02-23T09:08:50;2.90;;;0.90;;
55659;SDS011;41534;53.550;9.964;2024-02-23T09:11:50;7.03;;;1.38;;
55659;SDS011;41534;53.550;9.964;2024-02-23T09:14:51;2.80;;;1.13;;
55659;SDS011;41534;53.550;9.964;2024-02-23T09:17:51;5.10;;;1.52;;
55659;SDS011;41534;53.550;9.964;2024-02-23T09:20:52;1.98;;;1.15;;
55659;SDS011;41534;53.550;9.964;2024-02-23T09:23:52;2.00;;;1.45;;
55659;SDS011;41534;53.550;9.964;2024-02-23T09:26:52;1.88;;;1.30;;
55659;SDS011;41534;53.550;9.964;2024-02-23T09:29:53;2.13;;;1.30;;
55659;SDS011;41534;53.550;9.964;2024-02-23T09:32:53;4.40;;;1.63;;
55659;SDS011;41534;53.550;9.964;2024-02-23T09:35:53;2.53;;;1.67;;
55659;SDS011;41534;53.550;9.964;2024-02-23T09:38:53;3.55;;;1.70;;
55659;SDS011;41534;53.550;9.964;2024-02-23T09:41:54;2.58;;;1.90;;
55659;SDS011;41534;53.550;9.964;2024-02-23T09:44:57;2.60;;;1.90;;
55659;SDS011;41534;53.550;9.964;2024-02-23T09:47:59;3.65;;;1.90;;
55659;SDS011;41534;53.550;9.964;2024-02-23T09:51:00;2.45;;;2.25;;
55659;SDS011;41534;53.550;9.964;2024-02-23T09:54:01;3.80;;;2.38;;
55659;SDS011;41534;53.550;9.964;2024-02-23T09:57:02;3.28;;;2.83;;
55659;SDS011;41534;53.550;9.964;2024-02-23T10:00:08;3.85;;;2.53;;
55659;SDS011;41534;53.550;9.964;2024-02-23T10:03:10;3.92;;;3.00;;
55659;SDS011;41534;53.550;9.964;2024-02-23T10:06:10;3.20;;;2.72;;
55659;SDS011;41534;53.550;9.964;2024-02-23T10:09:10;3.80;;;3.20;;
55659;SDS011;41534;53.550;9.964;2024-02-23T10:12:10;3.63;;;3.30;;
55659;SDS011;41534;53.550;9.964;2024-02-23T10:15:11;3.67;;;3.38;;
55659;SDS011;41534;53.550;9.964;2024-02-23T10:18:11;4.35;;;3.85;;
55659;SDS011;41534;53.550;9.964;2024-02-23T10:21:11;6.95;;;4.57;;
55659;SDS011;41534;53.550;9.964;2024-02-23T10:24:12;4.05;;;3.75;;
55659;SDS011;41534;53.550;9.964;2024-02-23T10:27:12;4.53;;;3.88;;
55659;SDS011;41534;53.550;9.964;2024-02-23T10:30:13;4.68;;;4.13;;
55659;SDS011;41534;53.550;9.964;2024-02-23T10:33:14;5.30;;;4.20;;
55659;SDS011;41534;53.550;9.964;2024-02-23T10:36:15;4.80;;;4.40;;
55659;SDS011;41534;53.550;9.964;2024-02-23T10:39:17;4.85;;;4.45;;
55659;SDS011;41534;53.550;9.964;2024-02-23T10:42:18;5.13;;;4.72;;
55659;SDS011;41534;53.550;9.964;2024-02-23T10:48:24;5.60;;;4.80;;
55659;SDS011;41534;53.550;9.964;2024-02-23T10:51:25;6.15;;;5.65;;
55659;SDS011;41534;53.550;9.964;2024-02-23T10:54:25;7.60;;;6.88;;
55659;SDS011;41534;53.550;9.964;2024-02-23T10:57:26;7.80;;;6.93;;
55659;SDS011;41534;53.550;9.964;2024-02-23T11:00:27;10.55;;;7.40;;
55659;SDS011;41534;53.550;9.964;2024-02-23T11:03:30;9.00;;;7.38;;
55659;SDS011;41534;53.550;9.964;2024-02-23T11:06:33;8.60;;;7.80;;
55659;SDS011;41534;53.550;9.964;2024-02-23T11:09:34;9.45;;;7.93;;
55659;SDS011;41534;53.550;9.964;2024-02-23T11:12:35;9.95;;;7.70;;
55659;SDS011;41534;53.550;9.964;2024-02-23T11:15:35;11.02;;;8.45;;
55659;SDS011;41534;53.550;9.964;2024-02-23T11:18:42;10.43;;;9.40;;
55659;SDS011;41534;53.550;9.964;2024-02-23T11:21:42;10.52;;;9.52;;
55659;SDS011;41534;53.550;9.964;2024-02-23T11:24:43;11.40;;;9.57;;
55659;SDS011;41534;53.550;9.964;2024-02-23T11:27:44;12.50;;;9.88;;
55659;SDS011;41534;53.550;9.964;2024-02-23T11:30:44;12.95;;;10.75;;
55659;SDS011;41534;53.550;9.964;2024-02-23T11:33:52;11.15;;;9.98;;
55659;SDS011;41534;53.550;9.964;2024-02-23T11:36:53;12.32;;;11.05;;
55659;SDS011;41534;53.550;9.964;2024-02-23T11:39:54;12.38;;;11.07;;
55659;SDS011;41534;53.550;9.964;2024-02-23T11:42:55;12.02;;;10.90;;
55659;SDS011;41534;53.550;9.964;2024-02-23T11:45:55;13.40;;;12.10;;
55659;SDS011;41534;53.550;9.964;2024-02-23T11:48:55;14.05;;;12.65;;
55659;SDS011;41534;53.550;9.964;2024-02-23T11:51:56;14.00;;;12.53;;
55659;SDS011;41534;53.550;9.964;2024-02-23T11:54:56;15.77;;;13.07;;
55659;SDS011;41534;53.550;9.964;2024-02-23T11:57:57;16.00;;;13.32;;
55659;SDS011;41534;53.550;9.964;2024-02-23T12:00:57;16.85;;;13.50;;
55659;SDS011;41534;53.550;9.964;2024-02-23T12:03:57;15.93;;;13.68;;
55659;SDS011;41534;53.550;9.964;2024-02-23T12:06:58;14.82;;;13.32;;
55659;SDS011;41534;53.550;9.964;2024-02-23T12:09:58;19.98;;;13.85;;
55659;SDS011;41534;53.550;9.964;2024-02-23T12:12:59;24.63;;;15.23;;
55659;SDS011;41534;53.550;9.964;2024-02-23T12:15:59;39.22;;;14.15;;
55659;SDS011;41534;53.550;9.964;2024-02-23T12:19:01;18.67;;;13.70;;
55659;SDS011;41534;53.550;9.964;2024-02-23T12:22:01;17.98;;;13.40;;
55659;SDS011;41534;53.550;9.964;2024-02-23T12:25:01;14.77;;;13.20;;
55659;SDS011;41534;53.550;9.964;2024-02-23T12:28:02;16.98;;;13.40;;
55659;SDS011;41534;53.550;9.964;2024-02-23T12:31:03;16.45;;;12.63;;
55659;SDS011;41534;53.550;9.964;2024-02-23T12:34:04;16.90;;;13.57;;
55659;SDS011;41534;53.550;9.964;2024-02-23T12:37:04;18.05;;;13.55;;
55659;SDS011;41534;53.550;9.964;2024-02-23T12:40:05;17.17;;;14.85;;
55659;SDS011;41534;53.550;9.964;2024-02-23T12:43:05;16.67;;;14.95;;
55659;SDS011;41534;53.550;9.964;2024-02-23T12:46:06;18.83;;;14.95;;
55659;SDS011;41534;53.550;9.964;2024-02-23T12:49:06;20.02;;;14.77;;
55659;SDS011;41534;53.550;9.964;2024-02-23T12:52:06;19.43;;;16.87;;
55659;SDS011;41534;53.550;9.964;2024-02-23T12:55:07;20.42;;;17.35;;
55659;SDS011;41534;53.550;9.964;2024-02-23T12:58:07;19.40;;;16.90;;
55659;SDS011;41534;53.550;9.964;2024-02-23T13:01:08;21.17;;;16.20;;
55659;SDS011;41534;53.550;9.964;2024-02-23T13:04:09;19.73;;;15.68;;
55659;SDS011;41534;53.550;9.964;2024-02-23T13:07:09;20.92;;;16.42;;
55659;SDS011;41534;53.550;9.964;2024-02-23T13:10:09;20.90;;;15.43;;
55659;SDS011;41534;53.550;9.964;2024-02-23T13:13:09;22.83;;;15.87;;
55659;SDS011;41534;53.550;9.964;2024-02-23T13:16:10;28.58;;;15.75;;
55659;SDS011;41534;53.550;9.964;2024-02-23T13:19:10;28.80;;;16.15;;
55659;SDS011;41534;53.550;9.964;2024-02-23T13:22:10;31.80;;;15.73;;
55659;SDS011;41534;53.550;9.964;2024-02-23T13:25:11;25.48;;;15.90;;
55659;SDS011;41534;53.550;9.964;2024-02-23T13:28:11;21.40;;;15.48;;
55659;SDS011;41534;53.550;9.964;2024-02-23T13:31:11;17.95;;;15.38;;
55659;SDS011;41534;53.550;9.964;2024-02-23T13:34:12;21.33;;;15.00;;
55659;SDS011;41534;53.550;9.964;2024-02-23T13:37:12;22.23;;;14.57;;
55659;SDS011;41534;53.550;9.964;2024-02-23T13:40:12;17.00;;;14.77;;
55659;SDS011;41534;53.550;9.964;2024-02-23T13:43:13;19.77;;;15.60;;
55659;SDS011;41534;53.550;9.964;2024-02-23T13:46:13;21.65;;;15.10;;
55659;SDS011;41534;53.550;9.964;2024-02-23T13:49:13;22.53;;;15.97;;
55659;SDS011;41534;53.550;9.964;2024-02-23T13:52:13;19.67;;;15.57;;
55659;SDS011;41534;53.550;9.964;2024-02-23T13:55:14;20.45;;;15.38;;
55659;SDS011;41534;53.550;9.964;2024-02-23T13:58:14;20.10;;;15.32;;
55659;SDS011;41534;53.550;9.964;2024-02-23T14:01:15;20.67;;;15.57;;
55659;SDS011;41534;53.550;9.964;2024-02-23T14:04:15;20.40;;;14.85;;
55659;SDS011;41534;53.550;9.964;2024-02-23T14:07:16;22.10;;;15.18;;
55659;SDS011;41534;53.550;9.964;2024-02-23T14:10:16;19.67;;;15.38;;
55659;SDS011;41534;53.550;9.964;2024-02-23T14:13:16;16.98;;;14.45;;
55659;SDS011;41534;53.550;9.964;2024-02-23T14:16:16;18.90;;;14.65;;
55659;SDS011;41534;53.550;9.964;2024-02-23T14:19:17;16.98;;;14.07;;
55659;SDS011;41534;53.550;9.964;2024-02-23T14:22:17;18.77;;;15.45;;
55659;SDS011;41534;53.550;9.964;2024-02-23T14:25:18;15.70;;;14.07;;
55659;SDS011;41534;53.550;9.964;2024-02-23T14:28:18;16.80;;;13.80;;
55659;SDS011;41534;53.550;9.964;2024-02-23T14:31:18;16.13;;;14.10;;
55659;SDS011;41534;53.550;9.964;2024-02-23T14:34:19;17.42;;;14.98;;
55659;SDS011;41534;53.550;9.964;2024-02-23T14:37:19;15.40;;;13.80;;
55659;SDS011;41534;53.550;9.964;2024-02-23T14:40:19;17.57;;;14.03;;
55659;SDS011;41534;53.550;9.964;2024-02-23T14:43:19;17.27;;;13.80;;
55659;SDS011;41534;53.550;9.964;2024-02-23T14:46:20;16.27;;;13.43;;
55659;SDS011;41534;53.550;9.964;2024-02-23T14:49:20;17.38;;;13.85;;
55659;SDS011;41534;53.550;9.964;2024-02-23T14:52:20;20.65;;;13.73;;
55659;SDS011;41534;53.550;9.964;2024-02-23T14:55:20;16.48;;;13.93;;
55659;SDS011;41534;53.550;9.964;2024-02-23T14:58:21;19.60;;;14.57;;
55659;SDS011;41534;53.550;9.964;2024-02-23T15:01:21;17.17;;;14.35;;
55659;SDS011;41534;53.550;9.964;2024-02-23T15:04:21;15.85;;;14.00;;
55659;SDS011;41534;53.550;9.964;2024-02-23T15:07:22;15.00;;;13.40;;
55659;SDS011;41534;53.550;9.964;2024-02-23T15:10:22;15.30;;;13.50;;
55659;SDS011;41534;53.550;9.964;2024-02-23T15:13:22;14.53;;;13.03;;
55659;SDS011;41534;53.550;9.964;2024-02-23T15:16:25;14.48;;;12.88;;
55659;SDS011;41534;53.550;9.964;2024-02-23T15:19:25;14.18;;;12.68;;
55659;SDS011;41534;53.550;9.964;2024-02-23T15:22:25;14.17;;;12.70;;
55659;SDS011;41534;53.550;9.964;2024-02-23T15:25:26;14.60;;;12.98;;
55659;SDS011;41534;53.550;9.964;2024-02-23T15:28:26;14.25;;;12.75;;
55659;SDS011;41534;53.550;9.964;2024-02-23T15:31:26;14.10;;;12.67;;
55659;SDS011;41534;53.550;9.964;2024-02-23T15:34:27;16.23;;;13.30;;
55659;SDS011;41534;53.550;9.964;2024-02-23T15:37:27;13.90;;;12.43;;
55659;SDS011;41534;53.550;9.964;2024-02-23T15:40:27;15.48;;;13.88;;
55659;SDS011;41534;53.550;9.964;2024-02-23T15:43:27;14.90;;;13.40;;
55659;SDS011;41534;53.550;9.964;2024-02-23T15:46:28;14.57;;;13.10;;
55659;SDS011;41534;53.550;9.964;2024-02-23T15:49:28;14.90;;;13.40;;
55659;SDS011;41534;53.550;9.964;2024-02-23T15:52:28;13.97;;;12.40;;
55659;SDS011;41534;53.550;9.964;2024-02-23T15:55:28;14.27;;;12.82;;
55659;SDS011;41534;53.550;9.964;2024-02-23T15:58:29;14.10;;;12.60;;
55659;SDS011;41534;53.550;9.964;2024-02-23T16:01:29;14.50;;;13.00;;
55659;SDS011;41534;53.550;9.964;2024-02-23T16:04:29;14.15;;;12.65;;
55659;SDS011;41534;53.550;9.964;2024-02-23T16:07:30;14.43;;;12.93;;
55659;SDS011;41534;53.550;9.964;2024-02-23T16:10:30;15.07;;;13.15;;
55659;SDS011;41534;53.550;9.964;2024-02-23T16:13:30;13.70;;;12.30;;
55659;SDS011;41534;53.550;9.964;2024-02-23T16:16:30;14.67;;;13.03;;
55659;SDS011;41534;53.550;9.964;2024-02-23T16:19:31;14.43;;;12.70;;
55659;SDS011;41534;53.550;9.964;2024-02-23T16:22:31;13.93;;;12.53;;
55659;SDS011;41534;53.550;9.964;2024-02-23T16:25:31;14.07;;;12.68;;
55659;SDS011;41534;53.550;9.964;2024-02-23T16:28:32;13.60;;;12.30;;
55659;SDS011;41534;53.550;9.964;2024-02-23T16:31:35;14.30;;;12.80;;
55659;SDS011;41534;53.550;9.964;2024-02-23T16:34:36;13.15;;;11.75;;
55659;SDS011;41534;53.550;9.964;2024-02-23T16:37:36;13.10;;;11.73;;
55659;SDS011;41534;53.550;9.964;2024-02-23T16:40:37;12.23;;;11.02;;
55659;SDS011;41534;53.550;9.964;2024-02-23T16:43:37;13.13;;;11.93;;
55659;SDS011;41534;53.550;9.964;2024-02-23T16:46:37;12.00;;;10.80;;
55659;SDS011;41534;53.550;9.964;2024-02-23T16:49:37;12.93;;;11.57;;
55659;SDS011;41534;53.550;9.964;2024-02-23T16:52:38;12.00;;;10.80;;
55659;SDS011;41534;53.550;9.964;2024-02-23T16:55:38;11.45;;;10.35;;
55659;SDS011;41534;53.550;9.964;2024-02-23T16:58:39;12.13;;;11.00;;
55659;SDS011;41534;53.550;9.964;2024-02-23T17:01:39;11.47;;;10.37;;
55659;SDS011;41534;53.550;9.964;2024-02-23T17:04:39;12.50;;;11.25;;
55659;SDS011;41534;53.550;9.964;2024-02-23T17:07:40;11.50;;;10.30;;
55659;SDS011;41534;53.550;9.964;2024-02-23T17:10:40;11.98;;;10.75;;
55659;SDS011;41534;53.550;9.964;2024-02-23T17:13:40;11.65;;;10.18;;
55659;SDS011;41534;53.550;9.964;2024-02-23T17:16:41;10.83;;;9.83;;
55659;SDS011;41534;53.550;9.964;2024-02-23T17:19:41;10.93;;;9.90;;
55659;SDS011;41534;53.550;9.964;2024-02-23T17:22:42;11.17;;;10.17;;
55659;SDS011;41534;53.550;9.964;2024-02-23T17:25:42;11.45;;;10.35;;
55659;SDS011;41534;53.550;9.964;2024-02-23T17:28:43;12.27;;;9.68;;
55659;SDS011;41534;53.550;9.964;2024-02-23T17:31:43;11.00;;;10.03;;
55659;SDS011;41534;53.550;9.964;2024-02-23T17:34:43;11.03;;;9.80;;
55659;SDS011;41534;53.550;9.964;2024-02-23T17:37:43;11.43;;;9.90;;
55659;SDS011;41534;53.550;9.964;2024-02-23T17:40:44;11.50;;;10.23;;
55659;SDS011;41534;53.550;9.964;2024-02-23T17:43:44;11.10;;;10.00;;
55659;SDS011;41534;53.550;9.964;2024-02-23T17:46:44;10.23;;;9.25;;
55659;SDS011;41534;53.550;9.964;2024-02-23T17:49:45;11.00;;;10.00;;
55659;SDS011;41534;53.550;9.964;2024-02-23T17:52:45;11.10;;;10.00;;